createdAt,value
2023-05-09T05:00:27.552Z,18.13
2023-05-09T05:03:14.638Z,17.63
2023-05-09T05:06:00.652Z,18.20
2023-05-09T05:08:47.098Z,17.83
2023-05-09T05:11:33.987Z,16.42
2023-05-09T05:14:22.552Z,16.77
2023-05-09T05:23:39.378Z,17.25
2023-05-09T05:26:26.370Z,17.70
2023-05-09T05:29:13.811Z,16.38
2023-05-09T05:32:00.520Z,16.25
2023-05-09T05:34:47.170Z,16.70
2023-05-09T05:37:34.264Z,15.60
2023-05-09T05:40:22.352Z,15.93
2023-05-09T05:43:10.271Z,16.20
2023-05-09T05:45:58.508Z,14.60
2023-05-09T05:48:47.210Z,16.15
2023-05-09T05:51:33.904Z,16.70
2023-05-09T05:54:21.494Z,15.35
2023-05-09T05:57:09.456Z,15.68
2023-05-09T05:59:55.904Z,15.57
2023-05-09T06:02:44.611Z,15.40
2023-05-09T06:05:38.144Z,16.05
2023-05-09T06:08:25.618Z,15.65
2023-05-09T06:11:12.269Z,16.25
2023-05-09T06:13:59.530Z,15.48
2023-05-09T06:16:47.107Z,15.50
2023-05-09T06:19:34.787Z,15.27
2023-05-09T06:22:21.189Z,15.52
2023-05-09T06:25:10.121Z,14.85
2023-05-09T06:27:56.844Z,15.82
2023-05-09T06:30:44.400Z,16.45
2023-05-09T06:33:30.529Z,15.68
2023-05-09T06:36:16.770Z,17.27
2023-05-09T06:39:03.281Z,17.65
2023-05-09T06:41:49.768Z,17.45
2023-05-09T06:44:44.151Z,16.75
2023-05-09T06:47:32.320Z,17.40
2023-05-09T06:50:18.782Z,17.60
2023-05-09T06:53:04.981Z,17.45
2023-05-09T06:55:51.357Z,17.80
2023-05-09T06:58:37.951Z,17.98
2023-05-09T07:01:24.326Z,16.95
2023-05-09T07:04:11.970Z,16.98
2023-05-09T07:06:59.161Z,17.00
2023-05-09T07:09:45.580Z,16.55
2023-05-09T07:12:32.269Z,18.17
2023-05-09T07:15:28.759Z,17.98
2023-05-09T07:18:23.374Z,18.08
2023-05-09T07:21:11.094Z,17.38
2023-05-09T07:23:57.343Z,18.08
2023-05-09T07:26:43.513Z,18.30
2023-05-09T07:29:30.099Z,18.95
2023-05-09T07:32:16.525Z,19.30
2023-05-09T07:35:03.924Z,19.58
2023-05-09T07:37:51.253Z,20.77
2023-05-09T07:40:38.638Z,21.42
2023-05-09T07:43:25.160Z,21.55
2023-05-09T07:46:12.121Z,20.27
2023-05-09T07:48:58.343Z,19.23
2023-05-09T07:51:44.720Z,20.00
2023-05-09T07:54:32.523Z,20.90
2023-05-09T07:57:18.914Z,19.05
2023-05-09T08:00:07.050Z,18.95
2023-05-09T08:03:00.149Z,19.40
2023-05-09T08:05:47.110Z,19.05
2023-05-09T08:08:33.331Z,19.42
2023-05-09T08:11:21.358Z,20.13
2023-05-09T08:14:07.990Z,19.83
2023-05-09T08:16:54.298Z,18.67
2023-05-09T08:19:40.855Z,19.45
2023-05-09T08:22:27.290Z,18.35
2023-05-09T08:25:15.602Z,17.52
2023-05-09T08:28:04.007Z,15.50
2023-05-09T08:30:50.213Z,17.55
2023-05-09T08:33:36.741Z,15.70
2023-05-09T08:36:23.379Z,16.10
2023-05-09T08:39:10.485Z,16.35
2023-05-09T08:42:00.700Z,14.98
2023-05-09T08:44:48.100Z,16.52
2023-05-09T08:47:36.725Z,15.30
2023-05-09T08:50:23.573Z,15.38
2023-05-09T08:53:10.342Z,15.77
2023-05-09T08:55:56.920Z,14.68
2023-05-09T08:58:43.364Z,14.32
2023-05-09T09:01:33.875Z,14.15
2023-05-09T09:04:20.545Z,14.82
2023-05-09T09:07:07.987Z,15.02
2023-05-09T09:09:55.702Z,14.50
2023-05-09T09:12:43.386Z,14.55
2023-05-09T09:15:35.864Z,13.60
2023-05-09T09:18:29.384Z,13.52
2023-05-09T09:21:17.569Z,13.43
2023-05-09T09:24:04.449Z,13.48
2023-05-09T09:26:51.894Z,12.40
2023-05-09T09:29:39.531Z,12.43
2023-05-09T09:32:34.121Z,12.20
2023-05-09T09:35:21.848Z,12.07
2023-05-09T09:38:08.186Z,12.02
2023-05-09T09:40:55.765Z,12.20
2023-05-09T09:43:46.989Z,10.65
2023-05-09T09:46:42.385Z,10.88
2023-05-09T09:49:29.265Z,10.93
2023-05-09T09:52:24.093Z,10.45
2023-05-09T09:55:10.962Z,9.30
2023-05-09T09:57:57.994Z,11.05
2023-05-09T10:00:45.890Z,9.73
2023-05-09T10:03:37.065Z,9.68
2023-05-09T10:06:23.297Z,9.35
2023-05-09T10:09:10.919Z,10.35
2023-05-09T10:11:58.394Z,11.80
2023-05-09T10:14:46.013Z,11.20
2023-05-09T13:28:08.772Z,7.35
2023-05-09T13:30:55.209Z,8.32
2023-05-09T13:33:41.861Z,7.90
2023-05-09T13:36:29.060Z,7.35
2023-05-09T13:39:15.050Z,7.57
2023-05-09T13:42:02.151Z,8.35
2023-05-09T13:44:49.677Z,6.82
2023-05-09T13:47:37.961Z,7.43
2023-05-09T13:50:25.116Z,7.85
2023-05-09T13:53:11.288Z,7.60
2023-05-09T13:55:57.688Z,8.02
2023-05-09T13:58:44.227Z,7.88
2023-05-09T14:01:32.125Z,8.30
2023-05-09T14:04:18.739Z,7.57
2023-05-09T14:10:15.786Z,7.30
2023-05-09T14:13:03.249Z,8.27
2023-05-09T14:15:49.858Z,6.57
2023-05-09T14:18:37.454Z,7.43
2023-05-09T14:21:23.736Z,6.68
2023-05-09T14:24:10.713Z,7.13
2023-05-09T14:26:57.239Z,7.50
2023-05-09T14:29:44.068Z,7.72
2023-05-09T14:32:30.472Z,8.68
2023-05-09T14:35:18.728Z,8.07
2023-05-09T14:38:05.266Z,8.63
2023-05-09T14:40:51.603Z,8.75
2023-05-09T14:43:37.836Z,9.02
2023-05-09T14:46:24.860Z,8.90
2023-05-09T14:49:11.578Z,8.30
2023-05-09T14:51:59.180Z,7.65
2023-05-09T14:54:45.625Z,7.30
2023-05-09T14:57:32.211Z,7.38
2023-05-09T15:48:02.031Z,5.50
2023-05-09T15:50:49.553Z,5.40
2023-05-09T15:54:08.617Z,5.60
2023-05-09T15:56:54.665Z,6.32
2023-05-09T15:59:41.128Z,6.22
2023-05-09T16:02:29.460Z,6.97
2023-05-09T16:05:19.476Z,6.32
2023-05-09T16:08:06.197Z,7.28
2023-05-09T16:10:52.542Z,6.90
2023-05-09T16:13:40.872Z,6.88
2023-05-09T16:16:27.318Z,6.80
2023-05-09T16:19:14.342Z,8.27
2023-05-09T16:22:04.121Z,7.95
2023-05-09T16:24:52.105Z,7.90
2023-05-09T16:27:43.018Z,7.80
2023-05-09T16:30:29.720Z,8.70
2023-05-09T16:33:18.859Z,9.90
2023-05-09T16:36:05.886Z,9.53
2023-05-09T16:38:53.637Z,9.30
2023-05-09T16:41:39.853Z,9.18
2023-05-09T16:44:26.361Z,10.05
2023-05-09T16:47:12.737Z,9.95
2023-05-09T16:49:59.316Z,10.15
2023-05-09T16:52:45.694Z,10.55
2023-05-09T16:55:33.697Z,10.75
2023-05-09T16:58:20.132Z,10.18
2023-05-09T17:01:06.573Z,10.93
2023-05-09T17:03:55.499Z,11.10
2023-05-09T17:06:42.043Z,11.40
2023-05-09T17:09:28.691Z,12.05
2023-05-09T17:12:18.121Z,12.63
2023-05-09T17:15:05.699Z,12.48
2023-05-09T17:17:51.971Z,12.52
2023-05-09T17:20:38.367Z,11.85
2023-05-09T17:23:27.314Z,13.23
2023-05-09T17:26:13.866Z,12.45
2023-05-09T17:29:03.549Z,11.60
2023-05-09T17:31:49.971Z,12.13
2023-05-09T17:34:36.758Z,11.40
2023-05-09T17:37:22.703Z,12.20
2023-05-09T17:40:10.315Z,11.20
2023-05-09T17:42:56.460Z,10.35
2023-05-09T17:45:45.827Z,9.93
2023-05-09T17:48:32.199Z,9.75
2023-05-09T17:51:18.497Z,8.82
2023-05-09T17:54:05.577Z,10.13
2023-05-09T17:56:58.869Z,8.57
2023-05-09T17:59:47.823Z,7.28
2023-05-09T18:02:36.074Z,7.13
2023-05-09T18:05:23.338Z,7.68
2023-05-09T18:08:11.010Z,8.25
2023-05-09T18:10:57.689Z,8.85
2023-05-09T18:13:43.829Z,7.75
2023-05-09T18:16:30.297Z,7.40
2023-05-09T18:19:18.069Z,7.45
2023-05-09T18:22:04.358Z,7.68
2023-05-09T18:24:50.926Z,9.60
2023-05-09T18:27:37.398Z,8.00
2023-05-09T18:30:23.629Z,8.35
2023-05-09T18:33:09.851Z,8.57
2023-05-09T18:35:57.641Z,8.38
2023-05-09T18:38:44.503Z,8.48
2023-05-09T18:41:31.756Z,8.80
2023-05-09T18:44:18.163Z,10.07
2023-05-09T18:47:07.759Z,9.90
2023-05-09T18:49:54.410Z,11.13
2023-05-09T18:52:45.457Z,10.45
2023-05-09T18:55:32.029Z,13.13
2023-05-09T18:58:18.345Z,11.32
2023-05-09T19:46:22.797Z,12.45
2023-05-09T19:49:09.706Z,10.95
2023-05-09T19:51:56.325Z,10.55
2023-05-09T19:54:42.731Z,9.50
2023-05-09T19:57:29.229Z,9.57
2023-05-09T22:00:26.380Z,35.45
2023-05-09T22:03:14.103Z,34.20
2023-05-09T22:06:00.237Z,31.88
2023-05-09T22:08:46.590Z,33.88
2023-05-09T22:11:33.527Z,33.33
2023-05-09T22:14:19.892Z,32.42
